Terminal Aerodrome Forecast
Issued by NWS

Home | Current Version | Previous Version | Text Only | Print | Product List | Glossary On
Versions: 1 2 3 4 5 6 7 8 9 10 11 12 13 14
847
FTUS45 KTFX 052320
TAFLWT
TAF
KLWT 052320Z 0600/0624 35008KT P6SM SCT090 BKN200
     FM060700 32015KT P6SM VCSH OVC040
     FM061000 32008KT P6SM -SHRA SCT015 OVC030
      TEMPO 0611/0615 5SM -SHRA BR OVC015
     FM062000 07007KT P6SM OVC050=

USA.gov is the U.S. government's official web portal to all federal, state and local government web resources and services.